sensor_id;sensor_type;location;lat;lon;timestamp;P1;durP1;ratioP1;P2;durP2;ratioP2
4577;SDS011;2301;47.354;8.528;2022-07-22T00:00:51;6.70;;;5.27;;
4577;SDS011;2301;47.354;8.528;2022-07-22T00:03:18;5.63;;;4.73;;
4577;SDS011;2301;47.354;8.528;2022-07-22T00:05:45;5.40;;;4.90;;
4577;SDS011;2301;47.354;8.528;2022-07-22T00:08:12;7.33;;;4.87;;
4577;SDS011;2301;47.354;8.528;2022-07-22T00:10:39;7.80;;;5.00;;
4577;SDS011;2301;47.354;8.528;2022-07-22T00:13:07;7.07;;;4.70;;
4577;SDS011;2301;47.354;8.528;2022-07-22T00:15:33;5.53;;;4.60;;
4577;SDS011;2301;47.354;8.528;2022-07-22T00:18:02;9.93;;;5.10;;
4577;SDS011;2301;47.354;8.528;2022-07-22T00:20:29;6.83;;;5.13;;
4577;SDS011;2301;47.354;8.528;2022-07-22T00:22:55;4.57;;;4.17;;
4577;SDS011;2301;47.354;8.528;2022-07-22T00:25:22;5.47;;;4.67;;
4577;SDS011;2301;47.354;8.528;2022-07-22T00:27:49;7.37;;;5.60;;
4577;SDS011;2301;47.354;8.528;2022-07-22T00:30:17;6.63;;;5.10;;
4577;SDS011;2301;47.354;8.528;2022-07-22T00:32:44;7.03;;;5.20;;
4577;SDS011;2301;47.354;8.528;2022-07-22T00:35:12;5.63;;;4.57;;
4577;SDS011;2301;47.354;8.528;2022-07-22T00:37:39;7.67;;;4.90;;
4577;SDS011;2301;47.354;8.528;2022-07-22T00:40:06;8.23;;;4.87;;
4577;SDS011;2301;47.354;8.528;2022-07-22T00:42:34;11.33;;;5.10;;
4577;SDS011;2301;47.354;8.528;2022-07-22T00:45:01;5.00;;;4.40;;
4577;SDS011;2301;47.354;8.528;2022-07-22T00:47:28;6.70;;;5.03;;
4577;SDS011;2301;47.354;8.528;2022-07-22T00:49:55;5.23;;;4.53;;
4577;SDS011;2301;47.354;8.528;2022-07-22T00:52:23;5.37;;;4.87;;
4577;SDS011;2301;47.354;8.528;2022-07-22T00:54:50;8.30;;;4.77;;
4577;SDS011;2301;47.354;8.528;2022-07-22T00:57:17;6.70;;;4.93;;
4577;SDS011;2301;47.354;8.528;2022-07-22T00:59:44;6.53;;;4.20;;
4577;SDS011;2301;47.354;8.528;2022-07-22T01:02:11;5.27;;;4.53;;
4577;SDS011;2301;47.354;8.528;2022-07-22T01:04:39;6.60;;;4.97;;
4577;SDS011;2301;47.354;8.528;2022-07-22T01:07:06;8.43;;;5.00;;
4577;SDS011;2301;47.354;8.528;2022-07-22T01:09:34;4.97;;;4.23;;
4577;SDS011;2301;47.354;8.528;2022-07-22T01:12:02;13.33;;;4.87;;
4577;SDS011;2301;47.354;8.528;2022-07-22T01:14:29;6.90;;;4.50;;
4577;SDS011;2301;47.354;8.528;2022-07-22T01:16:56;4.80;;;4.40;;
4577;SDS011;2301;47.354;8.528;2022-07-22T01:19:23;6.50;;;4.50;;
4577;SDS011;2301;47.354;8.528;2022-07-22T01:21:51;8.27;;;4.90;;
4577;SDS011;2301;47.354;8.528;2022-07-22T01:24:18;5.90;;;4.80;;
4577;SDS011;2301;47.354;8.528;2022-07-22T01:26:45;11.00;;;4.97;;
4577;SDS011;2301;47.354;8.528;2022-07-22T01:29:12;6.97;;;5.30;;
4577;SDS011;2301;47.354;8.528;2022-07-22T01:31:39;7.20;;;5.30;;
4577;SDS011;2301;47.354;8.528;2022-07-22T01:34:06;8.47;;;4.90;;
4577;SDS011;2301;47.354;8.528;2022-07-22T01:36:32;9.50;;;4.90;;
4577;SDS011;2301;47.354;8.528;2022-07-22T01:39:01;7.23;;;5.00;;
4577;SDS011;2301;47.354;8.528;2022-07-22T01:41:28;5.90;;;5.30;;
4577;SDS011;2301;47.354;8.528;2022-07-22T01:43:54;8.53;;;5.27;;
4577;SDS011;2301;47.354;8.528;2022-07-22T01:46:21;7.33;;;5.03;;
4577;SDS011;2301;47.354;8.528;2022-07-22T01:48:49;9.17;;;5.10;;
4577;SDS011;2301;47.354;8.528;2022-07-22T01:51:16;5.57;;;4.63;;
4577;SDS011;2301;47.354;8.528;2022-07-22T01:53:43;7.77;;;5.90;;
4577;SDS011;2301;47.354;8.528;2022-07-22T01:56:11;6.13;;;5.60;;
4577;SDS011;2301;47.354;8.528;2022-07-22T01:58:39;11.07;;;6.10;;
4577;SDS011;2301;47.354;8.528;2022-07-22T02:01:06;8.80;;;5.57;;
4577;SDS011;2301;47.354;8.528;2022-07-22T02:03:33;8.00;;;5.40;;
4577;SDS011;2301;47.354;8.528;2022-07-22T02:06:01;7.00;;;5.27;;
4577;SDS011;2301;47.354;8.528;2022-07-22T02:08:28;8.70;;;5.40;;
4577;SDS011;2301;47.354;8.528;2022-07-22T02:10:55;7.90;;;5.90;;
4577;SDS011;2301;47.354;8.528;2022-07-22T02:13:23;8.60;;;5.93;;
4577;SDS011;2301;47.354;8.528;2022-07-22T02:15:50;9.00;;;6.20;;
4577;SDS011;2301;47.354;8.528;2022-07-22T02:18:17;8.57;;;6.10;;
4577;SDS011;2301;47.354;8.528;2022-07-22T02:20:44;7.07;;;6.10;;
4577;SDS011;2301;47.354;8.528;2022-07-22T02:23:12;7.30;;;6.30;;
4577;SDS011;2301;47.354;8.528;2022-07-22T02:25:39;12.20;;;5.70;;
4577;SDS011;2301;47.354;8.528;2022-07-22T02:28:07;8.80;;;6.73;;
4577;SDS011;2301;47.354;8.528;2022-07-22T02:30:36;7.03;;;5.47;;
4577;SDS011;2301;47.354;8.528;2022-07-22T02:33:03;8.90;;;6.33;;
4577;SDS011;2301;47.354;8.528;2022-07-22T02:35:30;8.00;;;6.30;;
4577;SDS011;2301;47.354;8.528;2022-07-22T02:37:58;9.10;;;5.90;;
4577;SDS011;2301;47.354;8.528;2022-07-22T02:40:25;8.93;;;6.50;;
4577;SDS011;2301;47.354;8.528;2022-07-22T02:42:51;5.93;;;5.37;;
4577;SDS011;2301;47.354;8.528;2022-07-22T02:45:19;9.87;;;6.97;;
4577;SDS011;2301;47.354;8.528;2022-07-22T02:47:48;13.17;;;6.50;;
4577;SDS011;2301;47.354;8.528;2022-07-22T02:50:15;8.27;;;5.47;;
4577;SDS011;2301;47.354;8.528;2022-07-22T02:52:42;7.13;;;5.87;;
4577;SDS011;2301;47.354;8.528;2022-07-22T02:55:09;9.77;;;6.23;;
4577;SDS011;2301;47.354;8.528;2022-07-22T02:57:36;11.10;;;6.40;;
4577;SDS011;2301;47.354;8.528;2022-07-22T03:00:04;8.37;;;5.87;;
4577;SDS011;2301;47.354;8.528;2022-07-22T03:02:31;7.00;;;5.70;;
4577;SDS011;2301;47.354;8.528;2022-07-22T03:04:59;10.23;;;5.80;;
4577;SDS011;2301;47.354;8.528;2022-07-22T03:07:26;7.70;;;6.90;;
4577;SDS011;2301;47.354;8.528;2022-07-22T03:09:53;7.10;;;6.07;;
4577;SDS011;2301;47.354;8.528;2022-07-22T03:12:20;9.60;;;5.83;;
4577;SDS011;2301;47.354;8.528;2022-07-22T03:14:47;9.87;;;6.20;;
4577;SDS011;2301;47.354;8.528;2022-07-22T03:17:14;13.30;;;6.03;;
4577;SDS011;2301;47.354;8.528;2022-07-22T03:19:41;5.87;;;5.27;;
4577;SDS011;2301;47.354;8.528;2022-07-22T03:22:09;8.00;;;5.47;;
4577;SDS011;2301;47.354;8.528;2022-07-22T03:24:36;7.63;;;5.67;;
4577;SDS011;2301;47.354;8.528;2022-07-22T03:27:02;6.87;;;5.50;;
4577;SDS011;2301;47.354;8.528;2022-07-22T03:29:30;11.27;;;5.57;;
4577;SDS011;2301;47.354;8.528;2022-07-22T03:31:57;5.63;;;5.03;;
4577;SDS011;2301;47.354;8.528;2022-07-22T03:34:24;7.57;;;5.27;;
4577;SDS011;2301;47.354;8.528;2022-07-22T03:36:50;5.50;;;5.00;;
4577;SDS011;2301;47.354;8.528;2022-07-22T03:39:19;9.37;;;5.90;;
4577;SDS011;2301;47.354;8.528;2022-07-22T03:41:45;5.70;;;5.20;;
4577;SDS011;2301;47.354;8.528;2022-07-22T03:44:12;10.50;;;6.33;;
4577;SDS011;2301;47.354;8.528;2022-07-22T03:46:39;6.27;;;5.33;;
4577;SDS011;2301;47.354;8.528;2022-07-22T03:49:06;7.07;;;5.43;;
4577;SDS011;2301;47.354;8.528;2022-07-22T03:51:33;8.17;;;5.20;;
4577;SDS011;2301;47.354;8.528;2022-07-22T03:53:59;6.27;;;5.70;;
4577;SDS011;2301;47.354;8.528;2022-07-22T03:56:28;8.30;;;6.27;;
4577;SDS011;2301;47.354;8.528;2022-07-22T03:58:55;6.47;;;5.87;;
4577;SDS011;2301;47.354;8.528;2022-07-22T04:01:21;8.23;;;5.37;;
4577;SDS011;2301;47.354;8.528;2022-07-22T04:03:48;6.30;;;5.13;;
4577;SDS011;2301;47.354;8.528;2022-07-22T04:06:15;6.50;;;5.33;;
4577;SDS011;2301;47.354;8.528;2022-07-22T04:08:42;8.37;;;5.73;;
4577;SDS011;2301;47.354;8.528;2022-07-22T04:11:09;5.97;;;5.27;;
4577;SDS011;2301;47.354;8.528;2022-07-22T04:13:38;10.40;;;6.20;;
4577;SDS011;2301;47.354;8.528;2022-07-22T04:16:05;7.20;;;6.50;;
4577;SDS011;2301;47.354;8.528;2022-07-22T04:18:32;10.73;;;6.17;;
4577;SDS011;2301;47.354;8.528;2022-07-22T04:20:59;13.27;;;5.50;;
4577;SDS011;2301;47.354;8.528;2022-07-22T04:23:25;9.10;;;6.30;;
4577;SDS011;2301;47.354;8.528;2022-07-22T04:25:52;14.77;;;7.10;;
4577;SDS011;2301;47.354;8.528;2022-07-22T04:28:19;6.93;;;6.00;;
4577;SDS011;2301;47.354;8.528;2022-07-22T04:30:47;9.40;;;6.67;;
4577;SDS011;2301;47.354;8.528;2022-07-22T04:33:14;8.37;;;6.00;;
4577;SDS011;2301;47.354;8.528;2022-07-22T04:35:41;9.70;;;6.27;;
4577;SDS011;2301;47.354;8.528;2022-07-22T04:38:08;10.00;;;5.87;;
4577;SDS011;2301;47.354;8.528;2022-07-22T04:40:35;8.33;;;5.90;;
4577;SDS011;2301;47.354;8.528;2022-07-22T04:43:02;9.20;;;5.97;;
4577;SDS011;2301;47.354;8.528;2022-07-22T04:45:29;8.70;;;6.30;;
4577;SDS011;2301;47.354;8.528;2022-07-22T04:47:57;8.77;;;6.30;;
4577;SDS011;2301;47.354;8.528;2022-07-22T04:50:24;6.73;;;5.83;;
4577;SDS011;2301;47.354;8.528;2022-07-22T04:52:51;8.60;;;6.63;;
4577;SDS011;2301;47.354;8.528;2022-07-22T04:55:18;5.93;;;5.33;;
4577;SDS011;2301;47.354;8.528;2022-07-22T04:57:45;8.90;;;6.30;;
4577;SDS011;2301;47.354;8.528;2022-07-22T05:00:12;6.83;;;5.10;;
4577;SDS011;2301;47.354;8.528;2022-07-22T05:02:40;9.60;;;6.50;;
4577;SDS011;2301;47.354;8.528;2022-07-22T05:05:09;7.03;;;6.03;;
4577;SDS011;2301;47.354;8.528;2022-07-22T05:07:36;9.03;;;6.60;;
4577;SDS011;2301;47.354;8.528;2022-07-22T05:10:05;7.87;;;6.40;;
4577;SDS011;2301;47.354;8.528;2022-07-22T05:12:32;9.57;;;6.90;;
4577;SDS011;2301;47.354;8.528;2022-07-22T05:14:59;7.90;;;5.70;;
4577;SDS011;2301;47.354;8.528;2022-07-22T05:17:26;10.73;;;6.20;;
4577;SDS011;2301;47.354;8.528;2022-07-22T05:19:53;9.23;;;6.90;;
4577;SDS011;2301;47.354;8.528;2022-07-22T05:22:21;10.87;;;6.67;;
4577;SDS011;2301;47.354;8.528;2022-07-22T05:24:48;7.47;;;6.40;;
4577;SDS011;2301;47.354;8.528;2022-07-22T05:27:15;13.63;;;7.00;;
4577;SDS011;2301;47.354;8.528;2022-07-22T05:29:41;11.03;;;6.90;;
4577;SDS011;2301;47.354;8.528;2022-07-22T05:32:08;12.90;;;6.90;;
4577;SDS011;2301;47.354;8.528;2022-07-22T05:34:35;9.63;;;7.13;;
4577;SDS011;2301;47.354;8.528;2022-07-22T05:37:02;7.93;;;6.17;;
4577;SDS011;2301;47.354;8.528;2022-07-22T05:39:30;10.40;;;7.03;;
4577;SDS011;2301;47.354;8.528;2022-07-22T05:41:57;12.27;;;7.53;;
4577;SDS011;2301;47.354;8.528;2022-07-22T05:44:24;7.63;;;6.93;;
4577;SDS011;2301;47.354;8.528;2022-07-22T05:46:51;8.80;;;7.90;;
4577;SDS011;2301;47.354;8.528;2022-07-22T05:49:18;11.33;;;7.60;;
4577;SDS011;2301;47.354;8.528;2022-07-22T05:51:46;10.57;;;7.87;;
4577;SDS011;2301;47.354;8.528;2022-07-22T05:54:13;10.13;;;8.47;;
4577;SDS011;2301;47.354;8.528;2022-07-22T05:56:41;9.07;;;8.13;;
4577;SDS011;2301;47.354;8.528;2022-07-22T05:59:08;10.53;;;8.83;;
4577;SDS011;2301;47.354;8.528;2022-07-22T06:01:35;13.90;;;8.50;;
4577;SDS011;2301;47.354;8.528;2022-07-22T06:04:02;10.97;;;8.70;;
4577;SDS011;2301;47.354;8.528;2022-07-22T06:06:29;10.77;;;8.40;;
4577;SDS011;2301;47.354;8.528;2022-07-22T06:08:56;11.87;;;8.67;;
4577;SDS011;2301;47.354;8.528;2022-07-22T06:11:23;13.10;;;8.80;;
4577;SDS011;2301;47.354;8.528;2022-07-22T06:13:51;10.47;;;8.77;;
4577;SDS011;2301;47.354;8.528;2022-07-22T06:16:18;11.50;;;8.80;;
4577;SDS011;2301;47.354;8.528;2022-07-22T06:18:45;14.33;;;8.63;;
4577;SDS011;2301;47.354;8.528;2022-07-22T06:21:12;11.53;;;8.33;;
4577;SDS011;2301;47.354;8.528;2022-07-22T06:23:39;10.60;;;9.23;;
4577;SDS011;2301;47.354;8.528;2022-07-22T06:26:06;19.77;;;9.00;;
4577;SDS011;2301;47.354;8.528;2022-07-22T06:28:32;13.47;;;9.10;;
4577;SDS011;2301;47.354;8.528;2022-07-22T06:31:01;14.07;;;9.17;;
4577;SDS011;2301;47.354;8.528;2022-07-22T06:33:28;17.70;;;9.60;;
4577;SDS011;2301;47.354;8.528;2022-07-22T06:35:58;15.63;;;10.60;;
4577;SDS011;2301;47.354;8.528;2022-07-22T06:38:25;14.87;;;9.07;;
4577;SDS011;2301;47.354;8.528;2022-07-22T06:40:52;12.47;;;9.87;;
4577;SDS011;2301;47.354;8.528;2022-07-22T06:43:19;12.57;;;8.40;;
4577;SDS011;2301;47.354;8.528;2022-07-22T06:45:46;19.43;;;10.50;;
4577;SDS011;2301;47.354;8.528;2022-07-22T06:48:14;9.63;;;8.57;;
4577;SDS011;2301;47.354;8.528;2022-07-22T06:50:41;15.00;;;9.40;;
4577;SDS011;2301;47.354;8.528;2022-07-22T06:53:07;22.47;;;10.97;;
4577;SDS011;2301;47.354;8.528;2022-07-22T06:55:34;16.07;;;10.80;;
4577;SDS011;2301;47.354;8.528;2022-07-22T06:58:01;12.50;;;10.03;;
4577;SDS011;2301;47.354;8.528;2022-07-22T07:00:28;13.03;;;9.70;;
4577;SDS011;2301;47.354;8.528;2022-07-22T07:02:57;12.70;;;10.50;;
4577;SDS011;2301;47.354;8.528;2022-07-22T07:05:26;14.50;;;10.30;;
4577;SDS011;2301;47.354;8.528;2022-07-22T07:07:53;14.97;;;11.10;;
4577;SDS011;2301;47.354;8.528;2022-07-22T07:10:20;13.77;;;10.90;;
4577;SDS011;2301;47.354;8.528;2022-07-22T07:12:47;13.80;;;10.80;;
4577;SDS011;2301;47.354;8.528;2022-07-22T07:15:14;12.00;;;9.67;;
4577;SDS011;2301;47.354;8.528;2022-07-22T07:17:41;10.77;;;9.70;;
4577;SDS011;2301;47.354;8.528;2022-07-22T07:20:08;12.40;;;9.03;;
4577;SDS011;2301;47.354;8.528;2022-07-22T07:22:37;10.33;;;9.20;;
4577;SDS011;2301;47.354;8.528;2022-07-22T07:25:04;12.73;;;10.10;;
4577;SDS011;2301;47.354;8.528;2022-07-22T07:27:32;12.57;;;10.20;;
4577;SDS011;2301;47.354;8.528;2022-07-22T07:29:59;12.93;;;11.63;;
4577;SDS011;2301;47.354;8.528;2022-07-22T07:32:27;13.47;;;10.20;;
4577;SDS011;2301;47.354;8.528;2022-07-22T07:34:54;14.20;;;11.73;;
4577;SDS011;2301;47.354;8.528;2022-07-22T07:37:20;12.83;;;11.53;;
4577;SDS011;2301;47.354;8.528;2022-07-22T07:39:49;12.23;;;9.50;;
4577;SDS011;2301;47.354;8.528;2022-07-22T07:42:16;13.73;;;11.23;;
4577;SDS011;2301;47.354;8.528;2022-07-22T07:44:43;10.80;;;9.73;;
4577;SDS011;2301;47.354;8.528;2022-07-22T07:47:10;14.43;;;11.13;;
4577;SDS011;2301;47.354;8.528;2022-07-22T07:49:38;15.50;;;11.80;;
4577;SDS011;2301;47.354;8.528;2022-07-22T07:52:05;14.93;;;10.17;;
4577;SDS011;2301;47.354;8.528;2022-07-22T07:54:32;13.73;;;11.83;;
4577;SDS011;2301;47.354;8.528;2022-07-22T07:57:00;13.80;;;11.23;;
4577;SDS011;2301;47.354;8.528;2022-07-22T07:59:27;12.87;;;10.73;;
4577;SDS011;2301;47.354;8.528;2022-07-22T08:01:54;12.13;;;10.93;;
4577;SDS011;2301;47.354;8.528;2022-07-22T08:04:21;13.13;;;10.50;;
4577;SDS011;2301;47.354;8.528;2022-07-22T08:06:48;22.50;;;11.30;;
4577;SDS011;2301;47.354;8.528;2022-07-22T08:09:15;15.93;;;12.87;;
4577;SDS011;2301;47.354;8.528;2022-07-22T08:11:42;13.67;;;11.63;;
4577;SDS011;2301;47.354;8.528;2022-07-22T08:14:10;14.00;;;11.27;;
4577;SDS011;2301;47.354;8.528;2022-07-22T08:16:37;14.60;;;12.07;;
4577;SDS011;2301;47.354;8.528;2022-07-22T08:19:04;11.23;;;10.13;;
4577;SDS011;2301;47.354;8.528;2022-07-22T08:21:31;14.77;;;11.10;;
4577;SDS011;2301;47.354;8.528;2022-07-22T08:23:58;13.50;;;11.53;;
4577;SDS011;2301;47.354;8.528;2022-07-22T08:26:25;12.30;;;10.20;;
4577;SDS011;2301;47.354;8.528;2022-07-22T08:28:52;12.77;;;10.80;;
4577;SDS011;2301;47.354;8.528;2022-07-22T08:31:21;11.40;;;9.90;;
4577;SDS011;2301;47.354;8.528;2022-07-22T08:33:48;13.27;;;11.33;;
4577;SDS011;2301;47.354;8.528;2022-07-22T08:36:14;14.30;;;10.67;;
4577;SDS011;2301;47.354;8.528;2022-07-22T08:38:41;14.60;;;11.10;;
4577;SDS011;2301;47.354;8.528;2022-07-22T08:41:08;12.60;;;11.17;;
4577;SDS011;2301;47.354;8.528;2022-07-22T08:43:36;11.43;;;10.10;;
4577;SDS011;2301;47.354;8.528;2022-07-22T08:46:06;17.13;;;11.73;;
4577;SDS011;2301;47.354;8.528;2022-07-22T08:48:37;11.67;;;10.53;;
4577;SDS011;2301;47.354;8.528;2022-07-22T08:51:04;15.40;;;11.80;;
4577;SDS011;2301;47.354;8.528;2022-07-22T08:53:32;15.40;;;11.67;;
4577;SDS011;2301;47.354;8.528;2022-07-22T08:56:00;12.10;;;10.90;;
4577;SDS011;2301;47.354;8.528;2022-07-22T08:58:26;12.20;;;10.87;;
4577;SDS011;2301;47.354;8.528;2022-07-22T09:01:03;11.50;;;10.27;;
4577;SDS011;2301;47.354;8.528;2022-07-22T09:03:31;14.53;;;10.17;;
4577;SDS011;2301;47.354;8.528;2022-07-22T09:06:01;16.03;;;11.40;;
4577;SDS011;2301;47.354;8.528;2022-07-22T09:08:28;12.43;;;11.13;;
4577;SDS011;2301;47.354;8.528;2022-07-22T09:10:55;12.03;;;10.80;;
4577;SDS011;2301;47.354;8.528;2022-07-22T09:13:22;11.60;;;10.10;;
4577;SDS011;2301;47.354;8.528;2022-07-22T09:15:51;11.47;;;10.30;;
4577;SDS011;2301;47.354;8.528;2022-07-22T09:18:19;20.60;;;10.40;;
4577;SDS011;2301;47.354;8.528;2022-07-22T09:20:47;10.33;;;9.37;;
4577;SDS011;2301;47.354;8.528;2022-07-22T09:23:16;12.60;;;10.30;;
4577;SDS011;2301;47.354;8.528;2022-07-22T09:25:48;14.53;;;10.53;;
4577;SDS011;2301;47.354;8.528;2022-07-22T09:28:16;11.43;;;10.33;;
4577;SDS011;2301;47.354;8.528;2022-07-22T09:30:46;12.53;;;11.20;;
4577;SDS011;2301;47.354;8.528;2022-07-22T09:33:14;9.97;;;9.07;;
4577;SDS011;2301;47.354;8.528;2022-07-22T09:35:47;10.30;;;8.83;;
4577;SDS011;2301;47.354;8.528;2022-07-22T09:38:27;12.60;;;9.33;;
4577;SDS011;2301;47.354;8.528;2022-07-22T09:40:56;12.10;;;9.80;;
4577;SDS011;2301;47.354;8.528;2022-07-22T09:43:24;10.73;;;9.67;;
4577;SDS011;2301;47.354;8.528;2022-07-22T09:45:57;15.23;;;9.63;;
4577;SDS011;2301;47.354;8.528;2022-07-22T09:48:25;10.47;;;9.67;;
4577;SDS011;2301;47.354;8.528;2022-07-22T09:50:53;12.70;;;9.50;;
4577;SDS011;2301;47.354;8.528;2022-07-22T09:53:23;10.70;;;9.70;;
4577;SDS011;2301;47.354;8.528;2022-07-22T09:55:53;9.93;;;8.93;;
4577;SDS011;2301;47.354;8.528;2022-07-22T09:58:28;12.17;;;9.20;;
4577;SDS011;2301;47.354;8.528;2022-07-22T10:00:58;13.53;;;8.60;;
4577;SDS011;2301;47.354;8.528;2022-07-22T10:03:29;10.97;;;9.87;;
4577;SDS011;2301;47.354;8.528;2022-07-22T10:05:58;10.03;;;8.93;;
4577;SDS011;2301;47.354;8.528;2022-07-22T10:08:27;12.03;;;9.57;;
4577;SDS011;2301;47.354;8.528;2022-07-22T10:10:58;10.40;;;9.30;;
4577;SDS011;2301;47.354;8.528;2022-07-22T10:13:26;12.00;;;9.50;;
4577;SDS011;2301;47.354;8.528;2022-07-22T10:15:57;9.23;;;8.43;;
4577;SDS011;2301;47.354;8.528;2022-07-22T10:18:32;10.13;;;9.13;;
4577;SDS011;2301;47.354;8.528;2022-07-22T10:21:06;11.73;;;9.27;;
4577;SDS011;2301;47.354;8.528;2022-07-22T10:23:35;9.03;;;8.20;;
4577;SDS011;2301;47.354;8.528;2022-07-22T10:26:25;11.47;;;9.40;;
4577;SDS011;2301;47.354;8.528;2022-07-22T10:32:21;10.30;;;9.40;;
4577;SDS011;2301;47.354;8.528;2022-07-22T10:38:00;11.90;;;8.97;;
4577;SDS011;2301;47.354;8.528;2022-07-22T10:40:31;10.07;;;9.07;;
4577;SDS011;2301;47.354;8.528;2022-07-22T10:43:12;13.97;;;9.90;;
4577;SDS011;2301;47.354;8.528;2022-07-22T10:45:41;9.40;;;8.43;;
4577;SDS011;2301;47.354;8.528;2022-07-22T10:48:12;11.00;;;9.90;;
4577;SDS011;2301;47.354;8.528;2022-07-22T10:50:41;10.87;;;9.50;;
4577;SDS011;2301;47.354;8.528;2022-07-22T10:53:15;11.20;;;9.27;;
4577;SDS011;2301;47.354;8.528;2022-07-22T10:56:12;10.83;;;9.73;;
4577;SDS011;2301;47.354;8.528;2022-07-22T10:58:41;9.80;;;8.80;;
4577;SDS011;2301;47.354;8.528;2022-07-22T11:01:11;11.47;;;9.40;;
4577;SDS011;2301;47.354;8.528;2022-07-22T11:03:40;12.40;;;9.20;;
4577;SDS011;2301;47.354;8.528;2022-07-22T11:06:12;10.20;;;9.30;;
4577;SDS011;2301;47.354;8.528;2022-07-22T11:08:45;13.00;;;9.80;;
4577;SDS011;2301;47.354;8.528;2022-07-22T11:11:15;10.73;;;9.53;;
4577;SDS011;2301;47.354;8.528;2022-07-22T11:13:43;10.00;;;9.10;;
4577;SDS011;2301;47.354;8.528;2022-07-22T11:16:14;10.37;;;9.20;;
4577;SDS011;2301;47.354;8.528;2022-07-22T11:18:46;14.37;;;9.33;;
4577;SDS011;2301;47.354;8.528;2022-07-22T11:21:18;8.57;;;7.77;;
4577;SDS011;2301;47.354;8.528;2022-07-22T11:23:47;13.30;;;9.17;;
4577;SDS011;2301;47.354;8.528;2022-07-22T11:26:18;10.10;;;9.10;;
4577;SDS011;2301;47.354;8.528;2022-07-22T11:28:49;15.40;;;8.53;;
4577;SDS011;2301;47.354;8.528;2022-07-22T11:31:18;14.47;;;9.50;;
4577;SDS011;2301;47.354;8.528;2022-07-22T11:33:45;10.13;;;9.20;;
4577;SDS011;2301;47.354;8.528;2022-07-22T11:36:13;9.63;;;8.63;;
4577;SDS011;2301;47.354;8.528;2022-07-22T11:38:41;14.60;;;8.20;;
4577;SDS011;2301;47.354;8.528;2022-07-22T11:41:13;9.67;;;8.70;;
4577;SDS011;2301;47.354;8.528;2022-07-22T11:43:43;16.90;;;8.90;;
4577;SDS011;2301;47.354;8.528;2022-07-22T11:46:11;8.87;;;8.07;;
4577;SDS011;2301;47.354;8.528;2022-07-22T11:48:38;10.30;;;9.30;;
4577;SDS011;2301;47.354;8.528;2022-07-22T11:51:14;9.10;;;8.40;;
4577;SDS011;2301;47.354;8.528;2022-07-22T11:53:41;9.70;;;8.50;;
4577;SDS011;2301;47.354;8.528;2022-07-22T11:56:09;9.03;;;8.10;;
4577;SDS011;2301;47.354;8.528;2022-07-22T11:58:38;8.17;;;7.40;;
4577;SDS011;2301;47.354;8.528;2022-07-22T12:01:08;9.33;;;8.40;;
4577;SDS011;2301;47.354;8.528;2022-07-22T12:03:37;8.37;;;7.67;;
4577;SDS011;2301;47.354;8.528;2022-07-22T12:06:06;10.03;;;8.20;;
4577;SDS011;2301;47.354;8.528;2022-07-22T12:08:38;8.00;;;7.20;;
4577;SDS011;2301;47.354;8.528;2022-07-22T12:11:09;8.70;;;7.90;;
4577;SDS011;2301;47.354;8.528;2022-07-22T12:13:40;8.50;;;7.80;;
4577;SDS011;2301;47.354;8.528;2022-07-22T12:16:23;12.93;;;7.90;;
4577;SDS011;2301;47.354;8.528;2022-07-22T12:18:53;8.50;;;7.73;;
4577;SDS011;2301;47.354;8.528;2022-07-22T12:21:22;7.93;;;7.23;;
4577;SDS011;2301;47.354;8.528;2022-07-22T12:23:51;8.10;;;7.50;;
4577;SDS011;2301;47.354;8.528;2022-07-22T12:26:19;10.57;;;8.30;;
4577;SDS011;2301;47.354;8.528;2022-07-22T12:29:13;9.50;;;8.33;;
4577;SDS011;2301;47.354;8.528;2022-07-22T12:31:45;10.10;;;7.97;;
4577;SDS011;2301;47.354;8.528;2022-07-22T12:34:13;8.63;;;7.80;;
4577;SDS011;2301;47.354;8.528;2022-07-22T12:36:43;8.73;;;7.80;;
4577;SDS011;2301;47.354;8.528;2022-07-22T12:39:11;8.17;;;7.53;;
4577;SDS011;2301;47.354;8.528;2022-07-22T12:41:44;10.13;;;9.10;;
4577;SDS011;2301;47.354;8.528;2022-07-22T12:44:16;12.73;;;8.03;;
4577;SDS011;2301;47.354;8.528;2022-07-22T12:46:46;9.53;;;8.70;;
4577;SDS011;2301;47.354;8.528;2022-07-22T12:49:15;9.23;;;8.30;;
4577;SDS011;2301;47.354;8.528;2022-07-22T12:54:36;10.33;;;8.10;;
4577;SDS011;2301;47.354;8.528;2022-07-22T12:57:04;9.07;;;8.27;;
4577;SDS011;2301;47.354;8.528;2022-07-22T12:59:32;9.73;;;8.80;;
4577;SDS011;2301;47.354;8.528;2022-07-22T13:02:00;9.03;;;8.17;;
4577;SDS011;2301;47.354;8.528;2022-07-22T13:04:27;9.30;;;8.30;;
4577;SDS011;2301;47.354;8.528;2022-07-22T13:06:55;9.53;;;8.60;;
4577;SDS011;2301;47.354;8.528;2022-07-22T13:09:22;9.83;;;8.83;;
4577;SDS011;2301;47.354;8.528;2022-07-22T13:11:48;9.00;;;7.73;;
4577;SDS011;2301;47.354;8.528;2022-07-22T13:14:15;10.17;;;9.07;;
4577;SDS011;2301;47.354;8.528;2022-07-22T13:16:42;9.87;;;8.43;;
4577;SDS011;2301;47.354;8.528;2022-07-22T13:19:11;8.63;;;7.93;;
4577;SDS011;2301;47.354;8.528;2022-07-22T13:21:38;10.27;;;9.00;;
4577;SDS011;2301;47.354;8.528;2022-07-22T13:24:06;10.50;;;9.37;;
4577;SDS011;2301;47.354;8.528;2022-07-22T13:26:33;9.87;;;8.77;;
4577;SDS011;2301;47.354;8.528;2022-07-22T13:29:00;10.30;;;9.30;;
4577;SDS011;2301;47.354;8.528;2022-07-22T13:31:27;10.70;;;8.37;;
4577;SDS011;2301;47.354;8.528;2022-07-22T13:33:55;9.53;;;7.77;;
4577;SDS011;2301;47.354;8.528;2022-07-22T13:36:24;9.20;;;8.07;;
4577;SDS011;2301;47.354;8.528;2022-07-22T13:38:53;8.80;;;7.50;;
4577;SDS011;2301;47.354;8.528;2022-07-22T13:41:20;12.60;;;7.30;;
4577;SDS011;2301;47.354;8.528;2022-07-22T13:43:47;8.87;;;8.03;;
4577;SDS011;2301;47.354;8.528;2022-07-22T13:46:16;8.77;;;7.87;;
4577;SDS011;2301;47.354;8.528;2022-07-22T13:48:43;9.10;;;7.40;;
4577;SDS011;2301;47.354;8.528;2022-07-22T13:51:11;8.20;;;7.47;;
4577;SDS011;2301;47.354;8.528;2022-07-22T13:53:40;8.30;;;7.53;;
4577;SDS011;2301;47.354;8.528;2022-07-22T13:56:07;8.10;;;7.40;;
4577;SDS011;2301;47.354;8.528;2022-07-22T13:58:35;7.47;;;6.80;;
4577;SDS011;2301;47.354;8.528;2022-07-22T14:01:05;7.53;;;6.83;;
4577;SDS011;2301;47.354;8.528;2022-07-22T14:03:34;8.20;;;7.50;;
4577;SDS011;2301;47.354;8.528;2022-07-22T14:06:01;10.63;;;7.40;;
4577;SDS011;2301;47.354;8.528;2022-07-22T14:08:28;8.77;;;7.80;;
4577;SDS011;2301;47.354;8.528;2022-07-22T14:10:56;14.50;;;7.67;;
4577;SDS011;2301;47.354;8.528;2022-07-22T14:13:24;8.77;;;6.37;;
4577;SDS011;2301;47.354;8.528;2022-07-22T14:15:51;9.33;;;7.53;;
4577;SDS011;2301;47.354;8.528;2022-07-22T14:18:18;7.87;;;7.07;;
4577;SDS011;2301;47.354;8.528;2022-07-22T14:20:45;8.00;;;7.20;;
4577;SDS011;2301;47.354;8.528;2022-07-22T14:23:12;6.83;;;6.23;;
4577;SDS011;2301;47.354;8.528;2022-07-22T14:25:41;7.93;;;7.23;;
4577;SDS011;2301;47.354;8.528;2022-07-22T14:28:09;7.70;;;6.27;;
4577;SDS011;2301;47.354;8.528;2022-07-22T14:30:37;10.70;;;7.17;;
4577;SDS011;2301;47.354;8.528;2022-07-22T14:33:03;11.63;;;7.97;;
4577;SDS011;2301;47.354;8.528;2022-07-22T14:35:30;8.40;;;7.60;;
4577;SDS011;2301;47.354;8.528;2022-07-22T14:37:59;7.73;;;7.03;;
4577;SDS011;2301;47.354;8.528;2022-07-22T14:40:27;8.00;;;7.20;;
4577;SDS011;2301;47.354;8.528;2022-07-22T14:42:53;7.53;;;6.83;;
4577;SDS011;2301;47.354;8.528;2022-07-22T14:45:22;9.30;;;7.10;;
4577;SDS011;2301;47.354;8.528;2022-07-22T14:47:55;9.20;;;6.67;;
4577;SDS011;2301;47.354;8.528;2022-07-22T14:50:22;7.27;;;6.67;;
4577;SDS011;2301;47.354;8.528;2022-07-22T14:52:49;7.60;;;6.93;;
4577;SDS011;2301;47.354;8.528;2022-07-22T14:55:16;12.80;;;6.93;;
4577;SDS011;2301;47.354;8.528;2022-07-22T14:57:43;11.33;;;7.53;;
4577;SDS011;2301;47.354;8.528;2022-07-22T15:00:11;10.93;;;7.93;;
4577;SDS011;2301;47.354;8.528;2022-07-22T15:02:39;11.50;;;7.70;;
4577;SDS011;2301;47.354;8.528;2022-07-22T15:05:06;7.93;;;6.90;;
4577;SDS011;2301;47.354;8.528;2022-07-22T15:07:34;7.53;;;6.83;;
4577;SDS011;2301;47.354;8.528;2022-07-22T15:10:01;8.13;;;7.10;;
4577;SDS011;2301;47.354;8.528;2022-07-22T15:12:28;8.50;;;7.10;;
4577;SDS011;2301;47.354;8.528;2022-07-22T15:14:55;9.40;;;6.60;;
4577;SDS011;2301;47.354;8.528;2022-07-22T15:17:22;7.10;;;6.27;;
4577;SDS011;2301;47.354;8.528;2022-07-22T15:19:50;8.17;;;7.50;;
4577;SDS011;2301;47.354;8.528;2022-07-22T15:22:17;11.90;;;6.80;;